sensor_id;sensor_type;location;lat;lon;timestamp;temperature;humidity
3504;DHT22;1766;53.490;10.174;2022-11-18T00:01:48;10.10;46.00
3504;DHT22;1766;53.490;10.174;2022-11-18T00:03:51;10.10;46.00
3504;DHT22;1766;53.490;10.174;2022-11-18T00:05:53;10.10;46.10
3504;DHT22;1766;53.490;10.174;2022-11-18T00:07:56;10.20;46.20
3504;DHT22;1766;53.490;10.174;2022-11-18T00:09:57;10.10;46.00
3504;DHT22;1766;53.490;10.174;2022-11-18T00:11:59;10.10;46.00
3504;DHT22;1766;53.490;10.174;2022-11-18T00:14:17;10.10;46.10
3504;DHT22;1766;53.490;10.174;2022-11-18T00:16:18;10.10;46.10
3504;DHT22;1766;53.490;10.174;2022-11-18T00:18:21;10.10;46.00
3504;DHT22;1766;53.490;10.174;2022-11-18T00:20:23;10.10;46.00
3504;DHT22;1766;53.490;10.174;2022-11-18T00:22:25;10.00;46.00
3504;DHT22;1766;53.490;10.174;2022-11-18T00:24:27;10.10;46.00
3504;DHT22;1766;53.490;10.174;2022-11-18T00:26:29;9.90;46.80
3504;DHT22;1766;53.490;10.174;2022-11-18T00:28:31;10.00;46.00
3504;DHT22;1766;53.490;10.174;2022-11-18T00:30:33;10.00;46.10
3504;DHT22;1766;53.490;10.174;2022-11-18T00:32:35;10.00;46.00
3504;DHT22;1766;53.490;10.174;2022-11-18T00:34:38;10.00;46.00
3504;DHT22;1766;53.490;10.174;2022-11-18T00:36:42;10.00;46.00
3504;DHT22;1766;53.490;10.174;2022-11-18T00:38:45;10.00;46.10
3504;DHT22;1766;53.490;10.174;2022-11-18T00:40:47;10.00;46.00
3504;DHT22;1766;53.490;10.174;2022-11-18T00:42:49;10.00;45.90
3504;DHT22;1766;53.490;10.174;2022-11-18T00:44:50;10.00;45.90
3504;DHT22;1766;53.490;10.174;2022-11-18T00:46:53;10.00;45.80
3504;DHT22;1766;53.490;10.174;2022-11-18T00:48:54;10.00;45.90
3504;DHT22;1766;53.490;10.174;2022-11-18T00:51:07;9.90;46.60
3504;DHT22;1766;53.490;10.174;2022-11-18T00:53:10;9.80;46.70
3504;DHT22;1766;53.490;10.174;2022-11-18T00:55:12;9.90;46.60
3504;DHT22;1766;53.490;10.174;2022-11-18T00:57:16;10.00;45.80
3504;DHT22;1766;53.490;10.174;2022-11-18T00:59:18;9.90;46.50
3504;DHT22;1766;53.490;10.174;2022-11-18T01:01:20;9.90;46.60
3504;DHT22;1766;53.490;10.174;2022-11-18T01:03:32;9.90;46.60
3504;DHT22;1766;53.490;10.174;2022-11-18T01:05:34;9.80;46.50
3504;DHT22;1766;53.490;10.174;2022-11-18T01:07:38;9.90;46.60
3504;DHT22;1766;53.490;10.174;2022-11-18T01:09:39;10.00;45.80
3504;DHT22;1766;53.490;10.174;2022-11-18T01:11:41;9.90;46.60
3504;DHT22;1766;53.490;10.174;2022-11-18T01:13:57;9.90;46.60
3504;DHT22;1766;53.490;10.174;2022-11-18T01:15:59;9.80;46.40
3504;DHT22;1766;53.490;10.174;2022-11-18T01:18:01;9.90;46.30
3504;DHT22;1766;53.490;10.174;2022-11-18T01:20:03;9.80;46.50
3504;DHT22;1766;53.490;10.174;2022-11-18T01:22:05;9.80;46.50
3504;DHT22;1766;53.490;10.174;2022-11-18T01:24:08;9.80;46.50
3504;DHT22;1766;53.490;10.174;2022-11-18T01:26:11;9.80;46.50
3504;DHT22;1766;53.490;10.174;2022-11-18T01:28:17;9.70;46.50
3504;DHT22;1766;53.490;10.174;2022-11-18T01:30:20;9.80;46.60
3504;DHT22;1766;53.490;10.174;2022-11-18T01:32:22;9.80;46.60
3504;DHT22;1766;53.490;10.174;2022-11-18T01:34:26;9.70;46.30
3504;DHT22;1766;53.490;10.174;2022-11-18T01:36:29;9.70;46.50
3504;DHT22;1766;53.490;10.174;2022-11-18T01:38:30;9.70;46.30
3504;DHT22;1766;53.490;10.174;2022-11-18T01:40:34;9.70;46.40
3504;DHT22;1766;53.490;10.174;2022-11-18T01:42:36;9.80;46.50
3504;DHT22;1766;53.490;10.174;2022-11-18T01:45:02;9.70;46.40
3504;DHT22;1766;53.490;10.174;2022-11-18T01:47:08;9.60;46.50
3504;DHT22;1766;53.490;10.174;2022-11-18T01:49:12;9.70;46.40
3504;DHT22;1766;53.490;10.174;2022-11-18T01:51:16;9.60;46.40
3504;DHT22;1766;53.490;10.174;2022-11-18T01:53:22;9.60;46.40
3504;DHT22;1766;53.490;10.174;2022-11-18T01:55:30;9.60;46.40
3504;DHT22;1766;53.490;10.174;2022-11-18T01:57:35;9.60;46.50
3504;DHT22;1766;53.490;10.174;2022-11-18T01:59:39;9.60;46.40
3504;DHT22;1766;53.490;10.174;2022-11-18T02:01:43;9.60;46.50
3504;DHT22;1766;53.490;10.174;2022-11-18T02:03:45;9.50;46.40
3504;DHT22;1766;53.490;10.174;2022-11-18T02:05:49;9.60;46.60
3504;DHT22;1766;53.490;10.174;2022-11-18T02:07:52;9.60;46.60
3504;DHT22;1766;53.490;10.174;2022-11-18T02:09:55;9.60;46.50
3504;DHT22;1766;53.490;10.174;2022-11-18T02:11:58;9.60;46.60
3504;DHT22;1766;53.490;10.174;2022-11-18T02:14:03;9.60;46.50
3504;DHT22;1766;53.490;10.174;2022-11-18T02:16:12;9.60;46.60
3504;DHT22;1766;53.490;10.174;2022-11-18T02:18:27;9.60;46.60
3504;DHT22;1766;53.490;10.174;2022-11-18T02:20:35;9.50;46.50
3504;DHT22;1766;53.490;10.174;2022-11-18T02:22:59;9.60;46.60
3504;DHT22;1766;53.490;10.174;2022-11-18T02:25:18;9.50;46.60
3504;DHT22;1766;53.490;10.174;2022-11-18T02:27:39;9.60;46.50
3504;DHT22;1766;53.490;10.174;2022-11-18T02:29:55;9.50;46.50
3504;DHT22;1766;53.490;10.174;2022-11-18T02:32:01;9.50;46.40
3504;DHT22;1766;53.490;10.174;2022-11-18T02:34:14;9.60;46.60
3504;DHT22;1766;53.490;10.174;2022-11-18T02:36:23;9.60;46.60
3504;DHT22;1766;53.490;10.174;2022-11-18T02:38:31;9.50;46.50
3504;DHT22;1766;53.490;10.174;2022-11-18T02:40:39;9.50;46.50
3504;DHT22;1766;53.490;10.174;2022-11-18T02:42:47;9.50;46.50
3504;DHT22;1766;53.490;10.174;2022-11-18T02:44:56;9.50;46.50
3504;DHT22;1766;53.490;10.174;2022-11-18T02:47:02;9.40;46.50
3504;DHT22;1766;53.490;10.174;2022-11-18T02:49:09;9.50;46.60
3504;DHT22;1766;53.490;10.174;2022-11-18T02:51:17;9.40;46.50
3504;DHT22;1766;53.490;10.174;2022-11-18T02:53:27;9.40;46.50
3504;DHT22;1766;53.490;10.174;2022-11-18T02:55:33;9.40;46.50
3504;DHT22;1766;53.490;10.174;2022-11-18T02:57:36;9.50;46.50
3504;DHT22;1766;53.490;10.174;2022-11-18T02:59:40;9.40;46.50
3504;DHT22;1766;53.490;10.174;2022-11-18T03:01:43;9.40;46.40
3504;DHT22;1766;53.490;10.174;2022-11-18T03:03:45;9.40;46.40
3504;DHT22;1766;53.490;10.174;2022-11-18T03:05:52;9.40;46.50
3504;DHT22;1766;53.490;10.174;2022-11-18T03:08:07;9.40;46.60
3504;DHT22;1766;53.490;10.174;2022-11-18T03:10:11;9.40;46.60
3504;DHT22;1766;53.490;10.174;2022-11-18T03:12:20;9.40;46.50
3504;DHT22;1766;53.490;10.174;2022-11-18T03:14:34;9.40;46.50
3504;DHT22;1766;53.490;10.174;2022-11-18T03:16:45;9.40;46.50
3504;DHT22;1766;53.490;10.174;2022-11-18T03:19:00;9.40;46.50
3504;DHT22;1766;53.490;10.174;2022-11-18T03:21:08;9.30;46.30
3504;DHT22;1766;53.490;10.174;2022-11-18T03:23:19;9.40;46.50
3504;DHT22;1766;53.490;10.174;2022-11-18T03:25:28;9.40;46.50
3504;DHT22;1766;53.490;10.174;2022-11-18T03:27:37;9.40;46.50
3504;DHT22;1766;53.490;10.174;2022-11-18T03:29:46;9.40;46.50
3504;DHT22;1766;53.490;10.174;2022-11-18T03:31:54;9.40;46.50
3504;DHT22;1766;53.490;10.174;2022-11-18T03:34:04;9.40;46.50
3504;DHT22;1766;53.490;10.174;2022-11-18T03:36:11;9.40;46.50
3504;DHT22;1766;53.490;10.174;2022-11-18T03:38:17;9.50;46.60
3504;DHT22;1766;53.490;10.174;2022-11-18T03:40:25;9.40;47.00
3504;DHT22;1766;53.490;10.174;2022-11-18T03:42:34;9.30;46.40
3504;DHT22;1766;53.490;10.174;2022-11-18T03:44:41;9.40;46.50
3504;DHT22;1766;53.490;10.174;2022-11-18T03:46:49;9.40;46.50
3504;DHT22;1766;53.490;10.174;2022-11-18T03:48:55;9.40;46.50
3504;DHT22;1766;53.490;10.174;2022-11-18T03:51:01;9.40;46.40
3504;DHT22;1766;53.490;10.174;2022-11-18T03:53:08;9.40;46.50
3504;DHT22;1766;53.490;10.174;2022-11-18T03:55:14;9.40;46.40
3504;DHT22;1766;53.490;10.174;2022-11-18T03:57:21;9.50;47.10
3504;DHT22;1766;53.490;10.174;2022-11-18T03:59:28;9.40;46.50
3504;DHT22;1766;53.490;10.174;2022-11-18T04:01:36;9.50;46.60
3504;DHT22;1766;53.490;10.174;2022-11-18T04:03:42;9.30;46.40
3504;DHT22;1766;53.490;10.174;2022-11-18T04:05:45;9.40;46.40
3504;DHT22;1766;53.490;10.174;2022-11-18T04:07:55;9.40;46.40
3504;DHT22;1766;53.490;10.174;2022-11-18T04:10:03;9.30;46.40
3504;DHT22;1766;53.490;10.174;2022-11-18T04:12:13;9.40;46.50
3504;DHT22;1766;53.490;10.174;2022-11-18T04:14:17;9.40;46.50
3504;DHT22;1766;53.490;10.174;2022-11-18T04:16:19;9.40;46.50
3504;DHT22;1766;53.490;10.174;2022-11-18T04:18:26;9.40;46.30
3504;DHT22;1766;53.490;10.174;2022-11-18T04:20:30;9.40;46.40
3504;DHT22;1766;53.490;10.174;2022-11-18T04:22:33;9.30;46.30
3504;DHT22;1766;53.490;10.174;2022-11-18T04:24:35;9.40;46.40
3504;DHT22;1766;53.490;10.174;2022-11-18T04:26:37;9.40;46.30
3504;DHT22;1766;53.490;10.174;2022-11-18T04:28:38;9.30;46.30
3504;DHT22;1766;53.490;10.174;2022-11-18T04:30:40;9.30;46.30
3504;DHT22;1766;53.490;10.174;2022-11-18T04:32:42;9.30;46.20
3504;DHT22;1766;53.490;10.174;2022-11-18T04:34:44;9.30;46.30
3504;DHT22;1766;53.490;10.174;2022-11-18T04:36:47;9.30;46.30
3504;DHT22;1766;53.490;10.174;2022-11-18T04:38:49;9.30;46.30
3504;DHT22;1766;53.490;10.174;2022-11-18T04:40:50;9.30;46.30
3504;DHT22;1766;53.490;10.174;2022-11-18T04:42:52;9.30;46.30
3504;DHT22;1766;53.490;10.174;2022-11-18T04:44:54;9.30;46.30
3504;DHT22;1766;53.490;10.174;2022-11-18T04:46:57;9.30;46.30
3504;DHT22;1766;53.490;10.174;2022-11-18T04:49:00;9.30;46.40
3504;DHT22;1766;53.490;10.174;2022-11-18T04:51:02;9.30;46.30
3504;DHT22;1766;53.490;10.174;2022-11-18T04:53:05;9.30;46.30
3504;DHT22;1766;53.490;10.174;2022-11-18T04:55:07;9.30;46.30
3504;DHT22;1766;53.490;10.174;2022-11-18T04:57:09;9.30;46.30
3504;DHT22;1766;53.490;10.174;2022-11-18T04:59:12;9.30;46.40
3504;DHT22;1766;53.490;10.174;2022-11-18T05:01:15;9.20;46.40
3504;DHT22;1766;53.490;10.174;2022-11-18T05:03:16;9.20;46.30
3504;DHT22;1766;53.490;10.174;2022-11-18T05:05:18;9.20;46.40
3504;DHT22;1766;53.490;10.174;2022-11-18T05:07:20;9.20;46.50
3504;DHT22;1766;53.490;10.174;2022-11-18T05:09:23;9.30;46.80
3504;DHT22;1766;53.490;10.174;2022-11-18T05:11:26;9.30;47.10
3504;DHT22;1766;53.490;10.174;2022-11-18T05:13:42;9.30;47.00
3504;DHT22;1766;53.490;10.174;2022-11-18T05:15:44;9.40;46.80
3504;DHT22;1766;53.490;10.174;2022-11-18T05:17:46;9.30;46.70
3504;DHT22;1766;53.490;10.174;2022-11-18T05:19:48;9.30;46.80
3504;DHT22;1766;53.490;10.174;2022-11-18T05:21:50;9.30;46.70
3504;DHT22;1766;53.490;10.174;2022-11-18T05:23:52;9.30;46.50
3504;DHT22;1766;53.490;10.174;2022-11-18T05:25:55;9.30;46.50
3504;DHT22;1766;53.490;10.174;2022-11-18T05:27:56;9.30;46.50
3504;DHT22;1766;53.490;10.174;2022-11-18T05:29:58;9.30;46.60
3504;DHT22;1766;53.490;10.174;2022-11-18T05:32:00;9.30;46.50
3504;DHT22;1766;53.490;10.174;2022-11-18T05:34:02;9.30;46.50
3504;DHT22;1766;53.490;10.174;2022-11-18T05:36:04;9.30;46.50
3504;DHT22;1766;53.490;10.174;2022-11-18T05:38:06;9.30;46.50
3504;DHT22;1766;53.490;10.174;2022-11-18T05:40:08;9.30;46.40
3504;DHT22;1766;53.490;10.174;2022-11-18T05:42:12;9.30;46.40
3504;DHT22;1766;53.490;10.174;2022-11-18T05:44:28;9.20;46.30
3504;DHT22;1766;53.490;10.174;2022-11-18T05:46:30;9.20;46.20
3504;DHT22;1766;53.490;10.174;2022-11-18T05:48:32;9.20;46.30
3504;DHT22;1766;53.490;10.174;2022-11-18T05:50:36;9.20;46.30
3504;DHT22;1766;53.490;10.174;2022-11-18T05:52:38;9.20;46.30
3504;DHT22;1766;53.490;10.174;2022-11-18T05:54:43;9.20;46.30
3504;DHT22;1766;53.490;10.174;2022-11-18T05:56:47;9.20;46.30
3504;DHT22;1766;53.490;10.174;2022-11-18T05:58:50;9.20;46.20
3504;DHT22;1766;53.490;10.174;2022-11-18T06:00:54;9.20;46.10
3504;DHT22;1766;53.490;10.174;2022-11-18T06:02:57;9.10;46.20
3504;DHT22;1766;53.490;10.174;2022-11-18T06:05:01;9.10;46.10
3504;DHT22;1766;53.490;10.174;2022-11-18T06:07:09;9.10;46.00
3504;DHT22;1766;53.490;10.174;2022-11-18T06:09:19;9.10;46.00
3504;DHT22;1766;53.490;10.174;2022-11-18T06:11:22;9.10;46.10
3504;DHT22;1766;53.490;10.174;2022-11-18T06:13:28;9.00;45.90
3504;DHT22;1766;53.490;10.174;2022-11-18T06:15:35;9.00;46.10
3504;DHT22;1766;53.490;10.174;2022-11-18T06:17:43;9.10;46.10
3504;DHT22;1766;53.490;10.174;2022-11-18T06:19:46;9.00;45.90
3504;DHT22;1766;53.490;10.174;2022-11-18T06:21:48;9.10;45.90
3504;DHT22;1766;53.490;10.174;2022-11-18T06:23:50;9.00;45.90
3504;DHT22;1766;53.490;10.174;2022-11-18T06:25:52;9.00;45.90
3504;DHT22;1766;53.490;10.174;2022-11-18T06:27:56;8.90;45.80
3504;DHT22;1766;53.490;10.174;2022-11-18T06:29:59;8.90;45.90
3504;DHT22;1766;53.490;10.174;2022-11-18T06:32:03;8.90;45.80
3504;DHT22;1766;53.490;10.174;2022-11-18T06:34:04;8.90;45.90
3504;DHT22;1766;53.490;10.174;2022-11-18T06:36:07;8.90;45.70
3504;DHT22;1766;53.490;10.174;2022-11-18T06:38:09;8.90;45.90
3504;DHT22;1766;53.490;10.174;2022-11-18T06:40:11;8.90;45.80
3504;DHT22;1766;53.490;10.174;2022-11-18T06:42:13;8.80;45.90
3504;DHT22;1766;53.490;10.174;2022-11-18T06:44:35;8.80;45.90
3504;DHT22;1766;53.490;10.174;2022-11-18T06:46:36;8.80;45.80
3504;DHT22;1766;53.490;10.174;2022-11-18T06:48:53;8.80;45.90
3504;DHT22;1766;53.490;10.174;2022-11-18T06:50:55;8.80;46.00
3504;DHT22;1766;53.490;10.174;2022-11-18T06:52:59;8.80;45.90
3504;DHT22;1766;53.490;10.174;2022-11-18T06:55:01;8.80;46.10
3504;DHT22;1766;53.490;10.174;2022-11-18T06:57:05;8.80;45.90
3504;DHT22;1766;53.490;10.174;2022-11-18T06:59:07;8.70;45.80
3504;DHT22;1766;53.490;10.174;2022-11-18T07:01:10;8.80;46.00
3504;DHT22;1766;53.490;10.174;2022-11-18T07:03:13;8.80;46.00
3504;DHT22;1766;53.490;10.174;2022-11-18T07:05:16;8.80;45.90
3504;DHT22;1766;53.490;10.174;2022-11-18T07:07:18;8.80;45.60
3504;DHT22;1766;53.490;10.174;2022-11-18T07:09:20;8.80;45.90
3504;DHT22;1766;53.490;10.174;2022-11-18T07:11:23;8.80;45.90
3504;DHT22;1766;53.490;10.174;2022-11-18T07:13:26;8.80;46.10
3504;DHT22;1766;53.490;10.174;2022-11-18T07:15:27;8.80;45.90
3504;DHT22;1766;53.490;10.174;2022-11-18T07:17:30;8.80;45.90
3504;DHT22;1766;53.490;10.174;2022-11-18T07:19:33;8.80;45.90
3504;DHT22;1766;53.490;10.174;2022-11-18T07:21:36;8.90;45.80
3504;DHT22;1766;53.490;10.174;2022-11-18T07:23:41;8.90;46.50
3504;DHT22;1766;53.490;10.174;2022-11-18T07:25:43;9.00;45.50
3504;DHT22;1766;53.490;10.174;2022-11-18T07:27:45;8.90;46.00
3504;DHT22;1766;53.490;10.174;2022-11-18T07:29:48;8.90;45.90
3504;DHT22;1766;53.490;10.174;2022-11-18T07:31:50;8.90;45.80
3504;DHT22;1766;53.490;10.174;2022-11-18T07:34:01;8.90;45.70
3504;DHT22;1766;53.490;10.174;2022-11-18T07:36:06;8.90;45.90
3504;DHT22;1766;53.490;10.174;2022-11-18T07:38:10;8.90;46.00
3504;DHT22;1766;53.490;10.174;2022-11-18T07:40:13;8.90;45.80
3504;DHT22;1766;53.490;10.174;2022-11-18T07:42:15;8.90;46.10
3504;DHT22;1766;53.490;10.174;2022-11-18T07:44:20;8.90;45.70
3504;DHT22;1766;53.490;10.174;2022-11-18T07:46:23;8.90;45.90
3504;DHT22;1766;53.490;10.174;2022-11-18T07:48:26;8.90;46.00
3504;DHT22;1766;53.490;10.174;2022-11-18T07:50:28;8.90;45.80
3504;DHT22;1766;53.490;10.174;2022-11-18T07:52:30;8.90;45.90
3504;DHT22;1766;53.490;10.174;2022-11-18T07:54:33;8.90;45.90
3504;DHT22;1766;53.490;10.174;2022-11-18T07:56:35;8.90;45.50
3504;DHT22;1766;53.490;10.174;2022-11-18T07:58:37;8.90;45.90
3504;DHT22;1766;53.490;10.174;2022-11-18T08:00:41;9.00;46.10
3504;DHT22;1766;53.490;10.174;2022-11-18T08:02:43;9.00;45.60
3504;DHT22;1766;53.490;10.174;2022-11-18T08:04:44;9.00;46.10
3504;DHT22;1766;53.490;10.174;2022-11-18T08:06:46;9.00;46.00
3504;DHT22;1766;53.490;10.174;2022-11-18T08:08:48;7.90;44.70
3504;DHT22;1766;53.490;10.174;2022-11-18T08:10:54;9.00;46.40
3504;DHT22;1766;53.490;10.174;2022-11-18T08:12:56;9.00;46.00
3504;DHT22;1766;53.490;10.174;2022-11-18T08:14:58;9.00;45.90
3504;DHT22;1766;53.490;10.174;2022-11-18T08:17:02;9.00;45.80
3504;DHT22;1766;53.490;10.174;2022-11-18T08:19:04;9.00;45.80
3504;DHT22;1766;53.490;10.174;2022-11-18T08:21:07;9.00;45.90
3504;DHT22;1766;53.490;10.174;2022-11-18T08:23:09;9.00;45.90
3504;DHT22;1766;53.490;10.174;2022-11-18T08:25:11;9.00;45.80
3504;DHT22;1766;53.490;10.174;2022-11-18T08:27:14;9.00;45.70
3504;DHT22;1766;53.490;10.174;2022-11-18T08:29:16;9.00;45.70
3504;DHT22;1766;53.490;10.174;2022-11-18T08:31:20;9.00;45.50
3504;DHT22;1766;53.490;10.174;2022-11-18T08:33:24;9.00;45.80
3504;DHT22;1766;53.490;10.174;2022-11-18T08:35:26;9.00;45.40
3504;DHT22;1766;53.490;10.174;2022-11-18T08:37:28;9.00;45.70
3504;DHT22;1766;53.490;10.174;2022-11-18T08:39:30;9.00;45.50
3504;DHT22;1766;53.490;10.174;2022-11-18T08:41:33;9.00;45.50
3504;DHT22;1766;53.490;10.174;2022-11-18T08:43:37;9.00;45.70
3504;DHT22;1766;53.490;10.174;2022-11-18T08:45:39;9.00;45.40
3504;DHT22;1766;53.490;10.174;2022-11-18T08:47:41;9.00;45.70
3504;DHT22;1766;53.490;10.174;2022-11-18T08:49:43;9.00;45.30
3504;DHT22;1766;53.490;10.174;2022-11-18T08:51:45;9.00;45.50
3504;DHT22;1766;53.490;10.174;2022-11-18T08:53:47;9.00;45.50
3504;DHT22;1766;53.490;10.174;2022-11-18T08:55:54;9.10;45.70
3504;DHT22;1766;53.490;10.174;2022-11-18T08:57:57;9.10;45.80
3504;DHT22;1766;53.490;10.174;2022-11-18T09:00:00;9.10;45.70
3504;DHT22;1766;53.490;10.174;2022-11-18T09:02:01;9.20;46.30
3504;DHT22;1766;53.490;10.174;2022-11-18T09:04:03;9.20;45.80
3504;DHT22;1766;53.490;10.174;2022-11-18T09:06:06;9.30;45.80
3504;DHT22;1766;53.490;10.174;2022-11-18T09:08:09;9.30;45.70
3504;DHT22;1766;53.490;10.174;2022-11-18T09:10:10;9.30;45.40
3504;DHT22;1766;53.490;10.174;2022-11-18T09:12:12;9.30;45.40
3504;DHT22;1766;53.490;10.174;2022-11-18T09:14:16;9.30;45.40
3504;DHT22;1766;53.490;10.174;2022-11-18T09:16:20;9.30;45.30
3504;DHT22;1766;53.490;10.174;2022-11-18T09:18:22;9.30;45.30
3504;DHT22;1766;53.490;10.174;2022-11-18T09:20:24;9.30;45.30
3504;DHT22;1766;53.490;10.174;2022-11-18T09:22:26;9.30;45.10
3504;DHT22;1766;53.490;10.174;2022-11-18T09:24:28;9.30;45.30
3504;DHT22;1766;53.490;10.174;2022-11-18T09:26:30;9.30;45.10
3504;DHT22;1766;53.490;10.174;2022-11-18T09:28:32;9.30;45.10
3504;DHT22;1766;53.490;10.174;2022-11-18T09:30:34;9.30;45.30
3504;DHT22;1766;53.490;10.174;2022-11-18T09:32:37;9.40;45.20
3504;DHT22;1766;53.490;10.174;2022-11-18T09:34:39;9.40;45.20
3504;DHT22;1766;53.490;10.174;2022-11-18T09:36:41;9.40;45.10
3504;DHT22;1766;53.490;10.174;2022-11-18T09:38:44;9.40;45.00
3504;DHT22;1766;53.490;10.174;2022-11-18T09:40:54;9.40;45.20
3504;DHT22;1766;53.490;10.174;2022-11-18T09:43:06;9.40;45.10
3504;DHT22;1766;53.490;10.174;2022-11-18T09:45:19;9.50;45.20
3504;DHT22;1766;53.490;10.174;2022-11-18T09:47:27;9.50;45.10
3504;DHT22;1766;53.490;10.174;2022-11-18T09:49:33;9.50;45.00
3504;DHT22;1766;53.490;10.174;2022-11-18T09:51:38;9.50;45.10
3504;DHT22;1766;53.490;10.174;2022-11-18T09:53:43;9.50;45.10
3504;DHT22;1766;53.490;10.174;2022-11-18T09:55:46;9.50;45.00
3504;DHT22;1766;53.490;10.174;2022-11-18T09:57:50;9.60;45.10
3504;DHT22;1766;53.490;10.174;2022-11-18T09:59:52;9.60;45.10
3504;DHT22;1766;53.490;10.174;2022-11-18T10:01:57;9.70;45.00
3504;DHT22;1766;53.490;10.174;2022-11-18T10:04:03;9.70;44.90
3504;DHT22;1766;53.490;10.174;2022-11-18T10:06:17;9.70;44.80
3504;DHT22;1766;53.490;10.174;2022-11-18T10:08:24;9.60;44.80
3504;DHT22;1766;53.490;10.174;2022-11-18T10:10:43;9.60;44.70
3504;DHT22;1766;53.490;10.174;2022-11-18T10:12:55;9.70;44.80
3504;DHT22;1766;53.490;10.174;2022-11-18T10:15:12;9.70;44.80
3504;DHT22;1766;53.490;10.174;2022-11-18T10:17:31;9.70;44.80
3504;DHT22;1766;53.490;10.174;2022-11-18T10:19:41;9.70;44.70
3504;DHT22;1766;53.490;10.174;2022-11-18T10:21:54;9.80;44.70
3504;DHT22;1766;53.490;10.174;2022-11-18T10:24:06;9.80;44.70
3504;DHT22;1766;53.490;10.174;2022-11-18T10:26:11;9.80;44.50
3504;DHT22;1766;53.490;10.174;2022-11-18T10:28:17;9.90;44.50
3504;DHT22;1766;53.490;10.174;2022-11-18T10:30:24;9.90;44.70
3504;DHT22;1766;53.490;10.174;2022-11-18T10:32:27;9.90;44.70
3504;DHT22;1766;53.490;10.174;2022-11-18T10:34:29;10.00;43.70
3504;DHT22;1766;53.490;10.174;2022-11-18T10:36:32;10.00;43.80
3504;DHT22;1766;53.490;10.174;2022-11-18T10:38:36;10.20;43.90
3504;DHT22;1766;53.490;10.174;2022-11-18T10:40:44;10.10;43.70
3504;DHT22;1766;53.490;10.174;2022-11-18T10:42:47;10.20;43.70
3504;DHT22;1766;53.490;10.174;2022-11-18T10:44:49;10.20;43.60
3504;DHT22;1766;53.490;10.174;2022-11-18T10:46:51;10.30;43.70
3504;DHT22;1766;53.490;10.174;2022-11-18T10:49:12;10.30;43.60
3504;DHT22;1766;53.490;10.174;2022-11-18T10:51:23;10.30;43.70
3504;DHT22;1766;53.490;10.174;2022-11-18T10:53:30;10.30;43.60
3504;DHT22;1766;53.490;10.174;2022-11-18T10:55:34;10.30;43.60
3504;DHT22;1766;53.490;10.174;2022-11-18T10:57:39;10.40;43.50
3504;DHT22;1766;53.490;10.174;2022-11-18T10:59:46;10.40;43.50
3504;DHT22;1766;53.490;10.174;2022-11-18T11:01:59;10.50;43.60
3504;DHT22;1766;53.490;10.174;2022-11-18T11:04:11;10.50;43.60
3504;DHT22;1766;53.490;10.174;2022-11-18T11:06:31;10.60;43.60
3504;DHT22;1766;53.490;10.174;2022-11-18T11:08:46;10.60;43.40
3504;DHT22;1766;53.490;10.174;2022-11-18T11:10:55;10.60;43.30
3504;DHT22;1766;53.490;10.174;2022-11-18T11:13:00;10.60;43.20
3504;DHT22;1766;53.490;10.174;2022-11-18T11:15:08;10.70;43.30
3504;DHT22;1766;53.490;10.174;2022-11-18T11:17:13;10.70;43.10
3504;DHT22;1766;53.490;10.174;2022-11-18T11:19:19;10.70;43.00
3504;DHT22;1766;53.490;10.174;2022-11-18T11:21:25;10.70;43.00
3504;DHT22;1766;53.490;10.174;2022-11-18T11:23:29;10.80;42.90
3504;DHT22;1766;53.490;10.174;2022-11-18T11:25:38;10.80;42.90
3504;DHT22;1766;53.490;10.174;2022-11-18T11:27:48;10.80;42.90
3504;DHT22;1766;53.490;10.174;2022-11-18T11:30:09;10.70;42.70
3504;DHT22;1766;53.490;10.174;2022-11-18T11:32:19;10.60;42.40
3504;DHT22;1766;53.490;10.174;2022-11-18T11:34:36;10.70;42.50
3504;DHT22;1766;53.490;10.174;2022-11-18T11:36:50;10.80;42.40
3504;DHT22;1766;53.490;10.174;2022-11-18T11:38:59;10.70;42.20
3504;DHT22;1766;53.490;10.174;2022-11-18T11:41:08;10.70;42.00
3504;DHT22;1766;53.490;10.174;2022-11-18T11:43:32;10.70;42.00
3504;DHT22;1766;53.490;10.174;2022-11-18T11:45:43;10.70;41.80
3504;DHT22;1766;53.490;10.174;2022-11-18T11:48:12;10.70;41.70
3504;DHT22;1766;53.490;10.174;2022-11-18T11:50:32;10.70;41.70
3504;DHT22;1766;53.490;10.174;2022-11-18T11:53:05;10.70;41.40
3504;DHT22;1766;53.490;10.174;2022-11-18T11:55:18;10.70;41.40
3504;DHT22;1766;53.490;10.174;2022-11-18T11:57:32;10.70;41.30
3504;DHT22;1766;53.490;10.174;2022-11-18T11:59:45;10.70;41.20
3504;DHT22;1766;53.490;10.174;2022-11-18T12:01:57;10.70;40.90
3504;DHT22;1766;53.490;10.174;2022-11-18T12:04:18;10.70;41.00
3504;DHT22;1766;53.490;10.174;2022-11-18T12:06:25;10.70;40.90
3504;DHT22;1766;53.490;10.174;2022-11-18T12:08:29;10.90;40.90
3504;DHT22;1766;53.490;10.174;2022-11-18T12:10:40;10.80;40.80
3504;DHT22;1766;53.490;10.174;2022-11-18T12:12:52;10.70;40.70
3504;DHT22;1766;53.490;10.174;2022-11-18T12:15:10;10.90;40.60
3504;DHT22;1766;53.490;10.174;2022-11-18T12:17:21;10.90;40.50
3504;DHT22;1766;53.490;10.174;2022-11-18T12:19:27;10.90;40.40
3504;DHT22;1766;53.490;10.174;2022-11-18T12:21:51;11.00;40.20
3504;DHT22;1766;53.490;10.174;2022-11-18T12:24:24;10.90;40.20
3504;DHT22;1766;53.490;10.174;2022-11-18T12:26:33;11.00;40.10
3504;DHT22;1766;53.490;10.174;2022-11-18T12:28:37;11.10;40.00
3504;DHT22;1766;53.490;10.174;2022-11-18T12:30:43;11.10;39.70
3504;DHT22;1766;53.490;10.174;2022-11-18T12:32:44;11.10;39.60
3504;DHT22;1766;53.490;10.174;2022-11-18T12:34:56;11.00;39.40
3504;DHT22;1766;53.490;10.174;2022-11-18T12:39:55;11.00;39.30
3504;DHT22;1766;53.490;10.174;2022-11-18T12:41:59;11.00;39.20
3504;DHT22;1766;53.490;10.174;2022-11-18T12:44:22;11.00;39.20
3504;DHT22;1766;53.490;10.174;2022-11-18T12:46:48;11.00;39.10
3504;DHT22;1766;53.490;10.174;2022-11-18T12:48:51;11.00;39.10
3504;DHT22;1766;53.490;10.174;2022-11-18T12:50:54;11.00;38.70
3504;DHT22;1766;53.490;10.174;2022-11-18T12:52:56;11.00;38.80
3504;DHT22;1766;53.490;10.174;2022-11-18T12:55:00;11.10;38.70
3504;DHT22;1766;53.490;10.174;2022-11-18T12:57:14;11.00;38.70
3504;DHT22;1766;53.490;10.174;2022-11-18T12:59:30;10.80;38.40
3504;DHT22;1766;53.490;10.174;2022-11-18T13:01:36;10.90;38.50
3504;DHT22;1766;53.490;10.174;2022-11-18T13:03:39;10.90;38.30
3504;DHT22;1766;53.490;10.174;2022-11-18T13:05:41;11.00;38.20
3504;DHT22;1766;53.490;10.174;2022-11-18T13:07:44;10.90;38.10
3504;DHT22;1766;53.490;10.174;2022-11-18T13:10:15;10.80;38.20
3504;DHT22;1766;53.490;10.174;2022-11-18T13:12:25;10.90;38.00
3504;DHT22;1766;53.490;10.174;2022-11-18T13:14:29;10.80;37.90
3504;DHT22;1766;53.490;10.174;2022-11-18T13:16:47;10.70;37.90
3504;DHT22;1766;53.490;10.174;2022-11-18T13:19:04;10.70;37.70
3504;DHT22;1766;53.490;10.174;2022-11-18T13:21:08;10.70;37.70
3504;DHT22;1766;53.490;10.174;2022-11-18T13:23:27;10.70;37.60
3504;DHT22;1766;53.490;10.174;2022-11-18T13:25:45;10.50;37.50
3504;DHT22;1766;53.490;10.174;2022-11-18T13:27:50;10.50;37.50
3504;DHT22;1766;53.490;10.174;2022-11-18T13:30:01;10.40;37.40
3504;DHT22;1766;53.490;10.174;2022-11-18T13:32:16;10.40;37.50
3504;DHT22;1766;53.490;10.174;2022-11-18T13:34:24;10.20;37.30
3504;DHT22;1766;53.490;10.174;2022-11-18T13:36:27;10.30;37.30
3504;DHT22;1766;53.490;10.174;2022-11-18T13:38:30;10.20;37.10
3504;DHT22;1766;53.490;10.174;2022-11-18T13:40:42;10.10;37.10
3504;DHT22;1766;53.490;10.174;2022-11-18T13:43:03;10.00;37.20